createdAt,value
2018-05-10T00:00:49.729Z,7.67
2018-05-10T00:05:52.226Z,7.47
2018-05-10T00:10:54.665Z,7.73
2018-05-10T00:15:57.209Z,7.90
2018-05-10T00:20:59.701Z,8.23
2018-05-10T00:26:02.149Z,7.87
2018-05-10T00:31:04.596Z,6.80
2018-05-10T00:36:07.045Z,7.00
2018-05-10T00:41:10.249Z,8.60
2018-05-10T00:46:14.249Z,8.87
2018-05-10T00:51:16.702Z,8.30
2018-05-10T00:56:19.909Z,9.57
2018-05-10T01:01:23.137Z,9.17
2018-05-10T01:06:25.582Z,8.73
2018-05-10T01:11:28.118Z,8.40
2018-05-10T01:16:31.076Z,8.20
2018-05-10T01:21:33.527Z,8.13
2018-05-10T01:26:36.013Z,9.53
2018-05-10T01:31:38.497Z,9.87
2018-05-10T01:36:40.942Z,9.27
2018-05-10T01:41:43.489Z,9.57
2018-05-10T01:46:45.938Z,10.27
2018-05-10T01:51:48.377Z,9.97
2018-05-10T01:56:50.829Z,10.70
2018-05-10T02:01:54.037Z,10.03
2018-05-10T02:06:57.259Z,10.80
2018-05-10T02:12:00.513Z,10.07
2018-05-10T02:17:02.977Z,10.83
2018-05-10T02:22:05.421Z,9.70
2018-05-10T02:27:07.872Z,10.27
2018-05-10T02:32:10.313Z,9.90
2018-05-10T02:37:12.770Z,10.87
2018-05-10T02:42:15.205Z,9.63
2018-05-10T02:47:17.746Z,9.47
2018-05-10T02:52:20.242Z,10.27
2018-05-10T02:57:22.735Z,10.50
2018-05-10T03:02:25.181Z,9.70
2018-05-10T03:07:27.629Z,10.20
2018-05-10T03:12:30.085Z,9.43
2018-05-10T03:17:32.526Z,9.77
2018-05-10T03:22:34.994Z,8.93
2018-05-10T03:27:37.470Z,9.40
2018-05-10T03:32:39.917Z,10.40
2018-05-10T03:37:42.365Z,9.27
2018-05-10T03:42:44.810Z,10.77
2018-05-10T03:47:48.824Z,10.17
2018-05-10T03:52:51.381Z,10.17
2018-05-10T03:57:53.828Z,10.13
2018-05-10T04:08:46.885Z,9.00
2018-05-10T04:13:49.329Z,9.83
2018-05-10T04:18:51.809Z,9.40
2018-05-10T04:23:54.245Z,9.87
2018-05-10T04:28:57.477Z,12.30
2018-05-10T04:33:59.927Z,13.77
2018-05-10T04:39:02.373Z,20.47
2018-05-10T04:44:04.857Z,26.67
2018-05-10T04:49:07.325Z,30.07
2018-05-10T04:54:10.540Z,33.43
2018-05-10T04:59:13.868Z,39.67
2018-05-10T05:04:16.315Z,43.73
2018-05-10T05:09:19.264Z,45.07
2018-05-10T05:14:21.713Z,50.17
2018-05-10T05:19:24.245Z,52.83
2018-05-10T05:24:26.741Z,55.67
2018-05-10T05:29:29.237Z,57.97
2018-05-10T05:34:31.729Z,60.73
2018-05-10T05:39:34.730Z,66.93
2018-05-10T05:44:37.181Z,67.23
2018-05-10T05:49:39.717Z,64.93
2018-05-10T05:54:42.213Z,64.90
2018-05-10T05:59:44.662Z,70.63
2018-05-10T06:04:47.881Z,69.87
2018-05-10T06:09:50.325Z,66.93
2018-05-10T06:14:52.781Z,69.60
2018-05-10T06:19:55.997Z,69.07
2018-05-10T06:24:59.963Z,62.87
2018-05-10T06:30:02.302Z,66.40
2018-05-10T06:35:05.522Z,66.43
2018-05-10T06:40:08.753Z,64.00
2018-05-10T06:45:11.965Z,64.43
2018-05-10T06:50:14.417Z,65.90
2018-05-10T06:55:16.870Z,63.73
2018-05-10T07:00:19.368Z,59.60
2018-05-10T07:05:21.809Z,63.67
2018-05-10T07:10:25.021Z,63.20
2018-05-10T07:15:28.333Z,59.10
2018-05-10T07:20:31.561Z,59.50
2018-05-10T07:25:34.009Z,61.50
2018-05-10T07:30:36.462Z,58.20
2018-05-10T07:35:38.915Z,54.83
2018-05-10T07:40:42.129Z,57.00
2018-05-10T07:45:45.334Z,57.63
2018-05-10T07:50:48.549Z,55.30
2018-05-10T07:55:51.761Z,53.83
2018-05-10T08:00:54.980Z,52.33
2018-05-10T08:05:58.193Z,51.07
2018-05-10T08:11:00.693Z,52.53
2018-05-10T08:16:03.145Z,49.57
2018-05-10T08:21:05.678Z,48.13
2018-05-10T08:26:08.125Z,47.23
2018-05-10T08:31:12.083Z,49.00
2018-05-10T08:36:16.005Z,47.00
2018-05-10T08:41:19.275Z,45.87
2018-05-10T08:46:21.832Z,44.13
2018-05-10T08:51:24.293Z,40.47
2018-05-10T08:56:27.513Z,37.30
2018-05-10T09:01:30.748Z,33.67
2018-05-10T09:06:33.193Z,35.17
2018-05-10T09:11:35.731Z,35.13
2018-05-10T09:16:38.182Z,35.80
2018-05-10T09:21:41.429Z,34.70
2018-05-10T09:26:43.874Z,36.97
2018-05-10T09:31:46.328Z,37.87
2018-05-10T09:36:48.782Z,35.90
2018-05-10T09:41:51.994Z,34.70
2018-05-10T09:46:55.214Z,35.77
2018-05-10T09:51:58.546Z,34.13
2018-05-10T09:57:01.037Z,34.03
2018-05-10T10:02:03.530Z,33.23
2018-05-10T10:07:06.026Z,32.67
2018-05-10T10:12:08.468Z,30.07
2018-05-10T10:17:11.689Z,29.67
2018-05-10T10:22:14.898Z,29.67
2018-05-10T10:27:17.443Z,28.73
2018-05-10T10:32:19.934Z,27.10
2018-05-10T10:37:23.828Z,24.73
2018-05-10T10:42:27.061Z,22.60
2018-05-10T10:47:29.509Z,21.20
2018-05-10T10:52:32.717Z,19.80
2018-05-10T10:57:35.165Z,19.33
2018-05-10T11:02:37.650Z,18.40
2018-05-10T11:07:40.137Z,16.73
2018-05-10T11:12:42.590Z,16.17
2018-05-10T11:17:45.806Z,14.57
2018-05-10T11:22:48.253Z,13.87
2018-05-10T11:27:50.705Z,13.13
2018-05-10T11:32:54.011Z,12.53
2018-05-10T11:37:57.142Z,13.43
2018-05-10T11:42:59.672Z,12.27
2018-05-10T11:48:02.190Z,15.77
2018-05-10T11:53:05.412Z,15.97
2018-05-10T11:58:07.857Z,18.03
2018-05-10T12:03:10.306Z,18.57
2018-05-10T12:08:13.522Z,19.00
2018-05-10T12:13:16.733Z,18.77
2018-05-10T12:18:19.954Z,18.57
2018-05-10T12:23:22.451Z,19.20
2018-05-10T12:28:24.951Z,20.20
2018-05-10T12:33:27.405Z,21.43
2018-05-10T12:38:29.861Z,20.90
2018-05-10T12:43:32.714Z,20.87
2018-05-10T12:48:35.981Z,20.10
2018-05-10T12:53:38.448Z,18.90
2018-05-10T12:58:40.931Z,19.70
2018-05-10T13:03:43.428Z,20.03
2018-05-10T13:08:45.870Z,20.83
2018-05-10T13:13:49.130Z,22.07
2018-05-10T13:18:51.573Z,22.67
2018-05-10T13:23:54.788Z,25.90
2018-05-10T13:28:58.797Z,22.93
2018-05-10T13:34:01.957Z,18.73
2018-05-10T13:39:04.409Z,17.33
2018-05-10T13:44:06.849Z,14.33
2018-05-10T13:49:09.301Z,11.90
2018-05-10T13:54:13.368Z,11.57
2018-05-10T13:59:15.866Z,10.37
2018-05-10T14:04:18.645Z,10.30
2018-05-10T14:09:21.868Z,11.10
2018-05-10T14:14:25.190Z,11.13
2018-05-10T14:19:27.687Z,10.67
2018-05-10T14:24:30.133Z,10.33
2018-05-10T14:29:32.670Z,10.77
2018-05-10T14:34:35.160Z,10.83
2018-05-10T14:39:37.653Z,9.50
2018-05-10T14:44:40.149Z,6.93
2018-05-10T14:49:42.614Z,7.27
2018-05-10T14:54:45.827Z,7.77
2018-05-10T14:59:49.123Z,8.70
2018-05-10T15:04:52.273Z,8.77
2018-05-10T15:09:54.799Z,8.03
2018-05-10T15:14:57.230Z,8.20
2018-05-10T15:20:00.473Z,7.23
2018-05-10T15:25:03.065Z,7.27
2018-05-10T15:30:06.365Z,7.63
2018-05-10T15:35:09.508Z,6.87
2018-05-10T15:40:11.948Z,6.37
2018-05-10T15:45:15.163Z,6.90
2018-05-10T15:50:18.375Z,7.60
2018-05-10T15:55:21.607Z,6.73
2018-05-10T16:00:24.083Z,6.87
2018-05-10T16:05:27.368Z,6.37
2018-05-10T16:10:29.810Z,7.00
2018-05-10T16:15:32.949Z,6.20
2018-05-10T16:20:35.403Z,9.27
2018-05-10T16:25:37.841Z,10.87
2018-05-10T16:30:40.385Z,11.90
2018-05-10T16:35:42.835Z,12.57
2018-05-10T16:40:45.294Z,13.37
2018-05-10T16:45:47.845Z,16.07
2018-05-10T16:50:51.850Z,17.67
2018-05-10T16:55:54.340Z,19.17
2018-05-10T17:00:56.777Z,18.80
2018-05-10T17:05:59.227Z,19.73
2018-05-10T17:11:01.732Z,19.37
2018-05-10T17:16:04.949Z,18.77
2018-05-10T17:21:08.186Z,18.17
2018-05-10T17:26:10.707Z,19.53
2018-05-10T17:31:13.174Z,18.60
2018-05-10T17:36:16.426Z,18.47
2018-05-10T17:41:18.925Z,18.63
2018-05-10T17:46:21.490Z,19.80
2018-05-10T17:51:23.983Z,18.73
2018-05-10T17:56:37.369Z,19.60
2018-05-10T18:01:47.117Z,18.57
2018-05-10T18:06:49.573Z,18.73
2018-05-10T18:11:52.048Z,18.77
2018-05-10T18:22:26.838Z,18.57
2018-05-10T18:27:30.053Z,18.63
2018-05-10T18:32:32.548Z,17.70
2018-05-10T18:37:35.789Z,18.10
2018-05-10T18:42:38.250Z,18.10
2018-05-10T18:47:41.458Z,19.80
2018-05-10T18:52:43.900Z,18.57
2018-05-10T18:57:46.461Z,18.60
2018-05-10T19:02:48.941Z,19.37
2018-05-10T19:07:52.203Z,20.40
2018-05-10T19:12:54.669Z,20.37
2018-05-10T19:17:57.112Z,20.33
2018-05-10T19:22:59.585Z,20.63
2018-05-10T19:28:02.116Z,21.30
2018-05-10T19:33:05.353Z,21.67
2018-05-10T19:38:07.843Z,21.63
2018-05-10T19:43:10.340Z,21.80
2018-05-10T19:48:12.790Z,21.97
2018-05-10T19:53:16.189Z,23.03
2018-05-10T19:58:18.729Z,21.73
2018-05-10T20:03:21.184Z,23.00
2018-05-10T20:08:23.866Z,24.73
2018-05-10T20:13:26.390Z,24.77
2018-05-10T20:18:30.509Z,25.13
2018-05-10T20:23:33.136Z,25.20
2018-05-10T20:28:35.624Z,31.90
2018-05-10T20:33:38.077Z,24.30
2018-05-10T20:38:40.534Z,23.73
2018-05-10T20:43:42.978Z,24.23
2018-05-10T20:48:46.237Z,25.43
2018-05-10T20:53:48.714Z,26.50
2018-05-10T20:58:51.165Z,19.70
2018-05-10T21:03:53.608Z,18.60
2018-05-10T21:08:56.076Z,14.80
2018-05-10T21:13:59.303Z,22.83
2018-05-10T21:19:01.756Z,24.10
2018-05-10T21:24:04.203Z,21.27
2018-05-10T21:29:06.674Z,16.50
2018-05-10T21:34:09.380Z,16.87
2018-05-10T21:39:11.829Z,19.27
2018-05-10T21:44:14.275Z,19.30
2018-05-10T21:49:28.832Z,21.50
2018-05-10T21:54:31.289Z,23.10
2018-05-10T21:59:33.741Z,23.57
2018-05-10T22:04:36.195Z,24.60
2018-05-10T22:09:39.436Z,24.00
2018-05-10T22:14:42.477Z,24.50
2018-05-10T22:19:51.794Z,24.03
2018-05-10T22:24:54.233Z,25.97
2018-05-10T22:29:56.776Z,24.80
2018-05-10T22:34:59.166Z,23.73
2018-05-10T22:40:24.150Z,22.97
2018-05-10T22:45:26.673Z,23.50
2018-05-10T22:50:29.133Z,23.37
2018-05-10T22:55:31.593Z,23.47
2018-05-10T23:00:34.042Z,23.07
2018-05-10T23:05:36.486Z,21.70
2018-05-10T23:10:53.323Z,22.67
2018-05-10T23:15:55.774Z,20.47
2018-05-10T23:20:58.235Z,19.40
2018-05-10T23:26:01.470Z,20.00
2018-05-10T23:31:03.938Z,20.63
2018-05-10T23:36:07.168Z,19.20
2018-05-10T23:41:09.623Z,17.00
2018-05-10T23:46:12.178Z,19.73
2018-05-10T23:51:14.622Z,19.50
2018-05-10T23:56:17.838Z,19.40
